createdAt,value
2024-03-12T00:00:44.162Z,100305.84
2024-03-12T00:03:11.379Z,100309.41
2024-03-12T00:05:38.640Z,100304.88
2024-03-12T00:08:09.243Z,100305.16
2024-03-12T00:10:36.256Z,100304.31
2024-03-12T00:13:03.736Z,100311.22
2024-03-12T00:15:30.716Z,100313.88
2024-03-12T00:17:57.752Z,100315.19
2024-03-12T00:20:24.831Z,100318.03
2024-03-12T00:22:52.138Z,100309.81
2024-03-12T00:25:19.501Z,100313.63
2024-03-12T00:27:52.693Z,100323.53
2024-03-12T00:30:20.072Z,100310.13
2024-03-12T00:32:47.048Z,100319.84
2024-03-12T00:35:13.938Z,100325.50
2024-03-12T00:37:41.507Z,100320.03
2024-03-12T00:40:11.681Z,100324.53
2024-03-12T00:42:43.289Z,100324.25
2024-03-12T00:45:12.585Z,100327.25
2024-03-12T00:47:42.930Z,100328.22
2024-03-12T00:50:11.057Z,100330.19
2024-03-12T00:52:42.002Z,100333.56
2024-03-12T00:55:09.428Z,100338.94
2024-03-12T00:57:39.405Z,100324.97
2024-03-12T01:00:07.918Z,100330.34
2024-03-12T01:02:34.797Z,100327.94
2024-03-12T01:05:01.589Z,100325.72
2024-03-12T01:07:28.346Z,100323.31
2024-03-12T01:09:55.410Z,100323.75
2024-03-12T01:12:22.540Z,100319.78
2024-03-12T01:14:49.362Z,100323.75
2024-03-12T01:17:19.775Z,100321.63
2024-03-12T01:19:46.835Z,100310.78
2024-03-12T01:22:13.845Z,100322.06
2024-03-12T01:24:40.682Z,100320.66
2024-03-12T01:27:10.033Z,100320.06
2024-03-12T01:29:37.035Z,100326.28
2024-03-12T01:32:04.198Z,100322.06
2024-03-12T01:34:31.197Z,100317.84
2024-03-12T01:36:58.515Z,100318.94
2024-03-12T01:39:25.665Z,100313.16
2024-03-12T01:41:53.946Z,100307.94
2024-03-12T01:44:21.317Z,100319.50
2024-03-12T01:46:48.238Z,100303.44
2024-03-12T01:49:16.294Z,100310.63
2024-03-12T01:51:43.201Z,100307.94
2024-03-12T01:54:10.208Z,100304.69
2024-03-12T01:56:37.313Z,100309.78
2024-03-12T01:59:07.837Z,100306.41
2024-03-12T02:01:34.763Z,100304.56
2024-03-12T02:04:01.905Z,100303.00
2024-03-12T02:06:31.776Z,100316.94
2024-03-12T02:08:58.801Z,100300.34
2024-03-12T02:11:26.277Z,100305.41
2024-03-12T02:13:53.163Z,100309.63
2024-03-12T02:16:20.127Z,100266.31
2024-03-12T02:18:46.961Z,100312.88
2024-03-12T02:21:13.858Z,100316.38
2024-03-12T02:23:41.963Z,100314.41
2024-03-12T02:26:09.393Z,100308.94
2024-03-12T02:28:40.187Z,100305.97
2024-03-12T02:31:08.111Z,100305.53
2024-03-12T02:33:35.160Z,100303.44
2024-03-12T02:36:02.112Z,100310.91
2024-03-12T02:38:29.032Z,100288.75
2024-03-12T02:40:56.209Z,100316.41
2024-03-12T02:43:23.059Z,100319.38
2024-03-12T02:45:49.870Z,100322.88
2024-03-12T02:48:20.848Z,100318.53
2024-03-12T02:50:54.724Z,100316.97
2024-03-12T02:53:22.470Z,100325.88
2024-03-12T02:55:49.373Z,100314.28
2024-03-12T02:58:16.240Z,100331.63
2024-03-12T03:00:43.069Z,100331.91
2024-03-12T03:03:09.917Z,100330.22
2024-03-12T03:05:36.743Z,100330.06
2024-03-12T03:08:03.627Z,100342.75
2024-03-12T03:10:30.498Z,100335.84
2024-03-12T03:12:57.367Z,100343.59
2024-03-12T03:15:24.458Z,100342.88
2024-03-12T03:17:51.363Z,100348.25
2024-03-12T03:20:18.418Z,100337.53
2024-03-12T03:22:45.799Z,100342.88
2024-03-12T03:25:13.296Z,100340.09
2024-03-12T03:27:40.655Z,100343.47
2024-03-12T03:30:09.317Z,100338.25
2024-03-12T03:32:36.318Z,100328.78
2024-03-12T03:35:04.630Z,100346.56
2024-03-12T03:37:31.651Z,100341.34
2024-03-12T03:40:02.154Z,100355.00
2024-03-12T03:42:29.454Z,100356.84
2024-03-12T03:44:56.754Z,100355.88
2024-03-12T03:47:23.749Z,100356.72
2024-03-12T03:49:50.598Z,100351.63
2024-03-12T03:52:17.584Z,100358.69
2024-03-12T03:54:44.477Z,100359.81
2024-03-12T03:57:14.355Z,100365.16
2024-03-12T03:59:41.531Z,100353.28
2024-03-12T04:02:08.398Z,100359.22
2024-03-12T04:04:35.883Z,100368.94
2024-03-12T04:07:02.717Z,100377.25
2024-03-12T04:09:29.596Z,100368.50
2024-03-12T04:11:58.704Z,100374.97
2024-03-12T04:14:25.576Z,100372.44
2024-03-12T04:16:52.473Z,100371.72
2024-03-12T04:19:20.195Z,100367.34
2024-03-12T04:21:50.263Z,100371.00
2024-03-12T04:24:17.444Z,100377.47
2024-03-12T04:26:44.270Z,100376.50
2024-03-12T04:29:11.312Z,100379.16
2024-03-12T04:31:38.182Z,100382.56
2024-03-12T04:34:05.118Z,100382.69
2024-03-12T04:36:32.220Z,100391.84
2024-03-12T04:38:59.125Z,100376.31
2024-03-12T04:41:26.124Z,100381.25
2024-03-12T04:43:53.139Z,100380.28
2024-03-12T04:46:20.406Z,100379.44
2024-03-12T04:48:50.190Z,100390.13
2024-03-12T04:51:17.069Z,100387.47
2024-03-12T04:53:46.722Z,100393.53
2024-03-12T04:56:13.696Z,100388.63
2024-03-12T04:58:40.587Z,100400.16
2024-03-12T05:01:07.780Z,100393.25
2024-03-12T05:03:37.795Z,100397.34
2024-03-12T05:06:04.714Z,100401.16
2024-03-12T05:08:31.547Z,100407.09
2024-03-12T05:11:01.212Z,100390.84
2024-03-12T05:13:30.148Z,100396.47
2024-03-12T05:15:57.030Z,100423.16
2024-03-12T05:18:24.163Z,100420.03
2024-03-12T05:20:51.058Z,100419.78
2024-03-12T05:23:18.120Z,100426.09
2024-03-12T05:25:45.116Z,100431.31
2024-03-12T05:28:12.286Z,100425.13
2024-03-12T05:30:39.578Z,100420.28
2024-03-12T05:33:08.262Z,100430.63
2024-03-12T05:35:35.115Z,100434.97
2024-03-12T05:38:05.231Z,100440.19
2024-03-12T05:40:35.739Z,100454.44
2024-03-12T05:43:02.859Z,100451.75
2024-03-12T05:45:30.122Z,100458.31
2024-03-12T05:47:57.302Z,100461.56
2024-03-12T05:50:24.281Z,100466.81
2024-03-12T05:52:56.019Z,100473.19
2024-03-12T05:55:25.806Z,100473.13
2024-03-12T05:57:53.506Z,100468.47
2024-03-12T06:00:20.546Z,100466.78
2024-03-12T06:02:47.333Z,100465.09
2024-03-12T06:05:14.383Z,100465.38
2024-03-12T06:07:44.731Z,100472.66
2024-03-12T06:10:11.798Z,100470.03
2024-03-12T06:12:39.445Z,100472.06
2024-03-12T06:15:06.650Z,100477.19
2024-03-12T06:17:33.994Z,100471.84
2024-03-12T06:20:00.909Z,100476.69
2024-03-12T06:22:33.788Z,100480.53
2024-03-12T06:25:04.468Z,100482.19
2024-03-12T06:27:31.832Z,100486.47
2024-03-12T06:29:58.600Z,100492.78
2024-03-12T06:32:25.373Z,100487.56
2024-03-12T06:34:53.845Z,100486.22
2024-03-12T06:37:26.822Z,100488.94
2024-03-12T06:39:53.651Z,100495.84
2024-03-12T06:42:22.858Z,100506.47
2024-03-12T06:44:51.276Z,100510.22
2024-03-12T06:47:18.027Z,100512.22
2024-03-12T06:49:44.935Z,100517.97
2024-03-12T06:52:13.792Z,100521.00
2024-03-12T06:54:40.670Z,100522.34
2024-03-12T06:57:07.732Z,100524.03
2024-03-12T06:59:35.390Z,100526.72
2024-03-12T07:02:05.653Z,100526.38
2024-03-12T07:04:32.447Z,100531.22
2024-03-12T07:06:59.310Z,100529.69
2024-03-12T07:09:26.388Z,100530.78
2024-03-12T07:11:54.500Z,100530.34
2024-03-12T07:14:24.082Z,100528.75
2024-03-12T07:16:51.134Z,100534.47
2024-03-12T07:19:20.115Z,100525.72
2024-03-12T07:21:47.163Z,100527.84
2024-03-12T07:24:15.281Z,100531.84
2024-03-12T07:26:43.137Z,100536.63
2024-03-12T07:29:13.997Z,100540.66
2024-03-12T07:31:41.034Z,100543.13
2024-03-12T07:34:08.013Z,100549.31
2024-03-12T07:36:37.812Z,100537.50
2024-03-12T07:39:04.724Z,100540.63
2024-03-12T07:41:31.578Z,100557.28
2024-03-12T07:44:01.509Z,100557.53
2024-03-12T07:46:28.350Z,100561.06
2024-03-12T07:48:55.304Z,100567.84
2024-03-12T07:51:22.195Z,100571.41
2024-03-12T07:53:49.166Z,100567.81
2024-03-12T07:56:16.022Z,100560.94
2024-03-12T07:58:43.324Z,100563.34
2024-03-12T08:01:10.258Z,100568.50
2024-03-12T08:03:37.299Z,100564.69
2024-03-12T08:06:04.931Z,100561.31
2024-03-12T08:08:31.781Z,100569.16
2024-03-12T08:10:58.799Z,100570.50
2024-03-12T08:13:25.778Z,100554.59
2024-03-12T08:15:53.238Z,100567.31
2024-03-12T08:18:21.761Z,100565.59
2024-03-12T08:20:48.999Z,100572.97
2024-03-12T08:23:16.099Z,100570.09
2024-03-12T08:25:54.789Z,100576.25
2024-03-12T08:28:25.532Z,100573.13
2024-03-12T08:30:52.369Z,100579.41
2024-03-12T08:33:24.309Z,100579.56
2024-03-12T08:35:51.121Z,100584.25
2024-03-12T08:38:18.026Z,100589.34
2024-03-12T08:40:44.823Z,100589.53
2024-03-12T08:43:11.812Z,100589.06
2024-03-12T08:45:38.716Z,100585.53
2024-03-12T08:48:05.999Z,100585.81
2024-03-12T08:50:33.250Z,100592.91
2024-03-12T08:53:00.343Z,100587.00
2024-03-12T08:55:27.207Z,100586.75
2024-03-12T08:57:54.406Z,100588.16
2024-03-12T09:00:21.497Z,100586.16
2024-03-12T09:02:48.339Z,100588.09
2024-03-12T09:05:15.181Z,100576.91
2024-03-12T09:07:48.460Z,100564.00
2024-03-12T09:10:19.957Z,100586.28
2024-03-12T09:12:46.759Z,100584.50
2024-03-12T09:15:13.596Z,100588.50
2024-03-12T09:17:40.654Z,100589.28
2024-03-12T09:20:08.223Z,100593.81
2024-03-12T09:22:39.293Z,100588.81
2024-03-12T09:25:06.930Z,100584.06
2024-03-12T09:27:33.770Z,100595.88
2024-03-12T09:30:00.602Z,100594.94
2024-03-12T09:32:27.474Z,100594.41
2024-03-12T09:34:55.305Z,100596.22
2024-03-12T09:37:22.198Z,100593.34
2024-03-12T09:39:53.127Z,100593.50
2024-03-12T09:42:23.661Z,100591.78
2024-03-12T09:44:51.032Z,100597.25
2024-03-12T09:47:17.877Z,100598.09
2024-03-12T09:49:49.430Z,100585.38
2024-03-12T09:52:16.398Z,100591.28
2024-03-12T09:54:48.945Z,100578.38
2024-03-12T09:57:19.001Z,100586.28
2024-03-12T09:59:49.083Z,100584.13
2024-03-12T10:02:16.207Z,100595.47
2024-03-12T10:04:43.264Z,100594.72
2024-03-12T10:07:10.280Z,100599.66
2024-03-12T10:09:39.349Z,100596.84
2024-03-12T10:12:10.266Z,100595.56
2024-03-12T10:14:37.091Z,100591.75
2024-03-12T10:17:15.225Z,100594.84
2024-03-12T10:19:46.964Z,100593.59
2024-03-12T10:22:19.174Z,100583.78
2024-03-12T10:24:46.087Z,100590.34
2024-03-12T10:27:13.025Z,100603.38
2024-03-12T10:29:44.244Z,100565.72
2024-03-12T10:32:21.443Z,100595.44
2024-03-12T10:34:49.106Z,100604.22
2024-03-12T10:37:33.390Z,100601.69
2024-03-12T10:40:22.516Z,100595.50
2024-03-12T10:42:57.574Z,100601.28
2024-03-12T10:45:25.815Z,100598.63
2024-03-12T10:47:56.217Z,100598.16
2024-03-12T10:50:26.399Z,100601.72
2024-03-12T10:52:54.825Z,100597.19
2024-03-12T10:55:26.135Z,100588.06
2024-03-12T10:57:58.906Z,100597.78
2024-03-12T11:00:31.348Z,100592.41
2024-03-12T11:03:01.972Z,100592.28
2024-03-12T11:05:29.438Z,100587.97
2024-03-12T11:07:57.342Z,100585.75
2024-03-12T11:10:26.302Z,100573.41
2024-03-12T11:12:54.570Z,100569.91
2024-03-12T11:15:21.709Z,100576.38
2024-03-12T11:17:50.621Z,100589.09
2024-03-12T11:20:18.080Z,100576.19
2024-03-12T11:22:47.062Z,100572.47
2024-03-12T11:25:27.020Z,100586.75
2024-03-12T11:28:17.174Z,100575.63
2024-03-12T11:30:44.033Z,100575.41
2024-03-12T11:33:10.909Z,100584.81
2024-03-12T11:35:37.763Z,100574.34
2024-03-12T11:40:50.990Z,100566.84
2024-03-12T11:43:46.374Z,100570.81
2024-03-12T11:46:44.268Z,100576.53
2024-03-12T11:49:33.142Z,100565.16
2024-03-12T11:52:00.178Z,100561.94
2024-03-12T11:54:42.872Z,100552.34
2024-03-12T11:57:27.160Z,100558.19
2024-03-12T11:59:54.020Z,100559.84
2024-03-12T12:02:22.256Z,100554.38
2024-03-12T12:04:49.637Z,100558.13
2024-03-12T12:07:16.678Z,100555.72
2024-03-12T12:09:51.950Z,100545.38
2024-03-12T12:12:19.557Z,100559.59
2024-03-12T12:14:47.349Z,100556.34
2024-03-12T12:17:21.172Z,100555.16
2024-03-12T12:20:10.409Z,100552.56
2024-03-12T12:22:37.273Z,100548.88
2024-03-12T12:25:04.572Z,100552.38
2024-03-12T12:27:31.555Z,100554.31
2024-03-12T12:29:59.943Z,100546.59
2024-03-12T12:32:28.654Z,100551.84
2024-03-12T12:34:55.685Z,100551.41
2024-03-12T12:37:26.294Z,100551.41
2024-03-12T12:39:55.491Z,100561.03
2024-03-12T12:42:26.840Z,100535.34
2024-03-12T12:44:53.767Z,100547.47
2024-03-12T12:47:23.240Z,100546.19
2024-03-12T12:50:00.043Z,100542.06
2024-03-12T12:52:27.722Z,100549.03
2024-03-12T12:55:00.945Z,100552.47
2024-03-12T12:57:33.726Z,100532.97
2024-03-12T13:00:00.790Z,100550.84
2024-03-12T13:02:30.510Z,100548.78
2024-03-12T13:04:58.606Z,100545.22
2024-03-12T13:07:29.733Z,100542.41
2024-03-12T13:09:56.641Z,100539.63
2024-03-12T13:12:23.436Z,100549.72
2024-03-12T13:14:50.268Z,100547.81
2024-03-12T13:17:18.507Z,100554.69
2024-03-12T13:19:45.406Z,100548.16
2024-03-12T13:22:16.333Z,100545.88
2024-03-12T13:24:46.672Z,100553.25
2024-03-12T13:27:13.584Z,100547.03
2024-03-12T13:29:40.414Z,100553.13
2024-03-12T13:32:07.451Z,100550.97
2024-03-12T13:34:34.706Z,100549.19
2024-03-12T13:37:01.524Z,100555.44
2024-03-12T13:39:28.320Z,100552.59
2024-03-12T13:41:55.366Z,100554.13
2024-03-12T13:44:22.262Z,100555.84
2024-03-12T13:46:49.050Z,100559.41
2024-03-12T13:49:16.086Z,100565.22
2024-03-12T13:51:43.864Z,100563.03
2024-03-12T13:54:11.295Z,100556.91
2024-03-12T13:56:38.992Z,100564.72
2024-03-12T13:59:10.749Z,100561.75
2024-03-12T14:01:37.766Z,100572.22
2024-03-12T14:04:04.956Z,100570.44
2024-03-12T14:06:31.879Z,100567.06
2024-03-12T14:08:58.998Z,100567.06
2024-03-12T14:11:26.252Z,100572.47
2024-03-12T14:13:53.320Z,100568.44
2024-03-12T14:16:22.767Z,100564.50
2024-03-12T14:18:50.193Z,100564.16
2024-03-12T14:21:17.133Z,100565.66
2024-03-12T14:23:43.947Z,100560.59
2024-03-12T14:26:11.075Z,100564.56
2024-03-12T14:28:41.552Z,100573.16
2024-03-12T14:31:08.426Z,100574.81
2024-03-12T14:33:35.438Z,100575.84
2024-03-12T14:36:02.297Z,100570.78
2024-03-12T14:38:29.023Z,100575.91
2024-03-12T14:40:55.817Z,100572.56
2024-03-12T14:43:23.861Z,100574.78
2024-03-12T14:45:50.681Z,100572.72
2024-03-12T14:48:21.912Z,100569.28
2024-03-12T14:50:48.785Z,100582.13
2024-03-12T14:53:21.134Z,100566.03
2024-03-12T14:55:47.938Z,100567.78
2024-03-12T14:58:14.993Z,100560.25
2024-03-12T15:00:41.813Z,100574.25
2024-03-12T15:03:08.778Z,100560.19
2024-03-12T15:05:35.573Z,100572.34
2024-03-12T15:08:03.636Z,100575.22
2024-03-12T15:10:30.535Z,100572.72
2024-03-12T15:13:00.675Z,100576.13
2024-03-12T15:15:28.287Z,100573.56
2024-03-12T15:17:55.072Z,100574.84
2024-03-12T15:20:22.028Z,100573.44
2024-03-12T15:22:49.747Z,100572.03
2024-03-12T15:25:16.899Z,100576.06
2024-03-12T15:27:43.800Z,100575.84
2024-03-12T15:30:11.298Z,100575.28
2024-03-12T15:32:38.116Z,100579.53
2024-03-12T15:35:06.104Z,100575.16
2024-03-12T15:37:36.385Z,100584.00
2024-03-12T15:40:03.449Z,100573.38
2024-03-12T15:42:33.606Z,100582.50
2024-03-12T15:45:04.805Z,100582.84
2024-03-12T15:47:32.232Z,100567.88
2024-03-12T15:49:59.023Z,100585.59
2024-03-12T15:52:28.355Z,100579.34
2024-03-12T15:54:55.977Z,100584.16
2024-03-12T15:57:22.821Z,100586.25
2024-03-12T15:59:52.434Z,100577.47
2024-03-12T16:02:19.445Z,100579.16
2024-03-12T16:04:46.570Z,100585.91
2024-03-12T16:07:13.494Z,100582.19
2024-03-12T16:09:40.736Z,100581.84
2024-03-12T16:12:08.568Z,100583.56
2024-03-12T16:14:36.184Z,100587.38
2024-03-12T16:17:02.967Z,100582.56
2024-03-12T16:19:33.079Z,100585.94
2024-03-12T16:21:59.859Z,100599.19
2024-03-12T16:24:27.796Z,100593.94
2024-03-12T16:26:55.374Z,100588.03
2024-03-12T16:29:22.124Z,100602.09
2024-03-12T16:31:50.933Z,100604.38
2024-03-12T16:34:17.891Z,100606.91
2024-03-12T16:36:44.862Z,100606.88
2024-03-12T16:39:13.683Z,100608.53
2024-03-12T16:41:41.562Z,100611.38
2024-03-12T16:44:08.390Z,100614.66
2024-03-12T16:46:35.191Z,100607.44
2024-03-12T16:49:02.058Z,100615.59
2024-03-12T16:51:28.942Z,100615.31
2024-03-12T16:53:59.547Z,100632.38
2024-03-12T16:56:26.858Z,100633.31
2024-03-12T16:58:54.346Z,100628.75
2024-03-12T17:01:21.748Z,100640.44
2024-03-12T17:03:53.149Z,100632.78
2024-03-12T17:06:21.249Z,100639.78
2024-03-12T17:08:48.325Z,100643.84
2024-03-12T17:11:15.302Z,100644.78
2024-03-12T17:13:50.515Z,100652.34
2024-03-12T17:16:18.948Z,100650.34
2024-03-12T17:18:46.236Z,100660.63
2024-03-12T17:21:13.214Z,100671.13
2024-03-12T17:23:40.180Z,100668.69
2024-03-12T17:26:07.244Z,100671.34
2024-03-12T17:28:34.439Z,100671.25
2024-03-12T17:31:01.727Z,100679.97
2024-03-12T17:33:29.192Z,100678.19
2024-03-12T17:35:57.758Z,100693.16
2024-03-12T17:38:26.343Z,100689.13
2024-03-12T17:40:54.329Z,100696.38
2024-03-12T17:43:28.539Z,100671.94
2024-03-12T17:45:55.899Z,100704.91
2024-03-12T17:48:23.089Z,100712.38
2024-03-12T17:50:50.228Z,100709.16
2024-03-12T17:53:17.342Z,100720.31
2024-03-12T17:55:44.509Z,100725.06
2024-03-12T17:58:13.187Z,100726.78
2024-03-12T18:00:40.338Z,100724.75
2024-03-12T18:03:07.749Z,100733.69
2024-03-12T18:05:34.799Z,100738.94
2024-03-12T18:08:03.823Z,100735.19
2024-03-12T18:10:33.455Z,100738.91
2024-03-12T18:13:00.810Z,100741.56
2024-03-12T18:15:27.821Z,100742.56
2024-03-12T18:17:54.726Z,100743.06
2024-03-12T18:20:26.299Z,100732.38
2024-03-12T18:22:53.075Z,100739.47
2024-03-12T18:25:19.896Z,100749.56
2024-03-12T18:27:46.896Z,100755.97
2024-03-12T18:30:13.919Z,100743.56
2024-03-12T18:32:40.750Z,100747.75
2024-03-12T18:35:09.387Z,100755.81
2024-03-12T18:37:40.519Z,100751.25
2024-03-12T18:40:11.699Z,100757.09
2024-03-12T18:42:51.738Z,100758.06
2024-03-12T18:45:19.886Z,100760.06
2024-03-12T18:47:47.591Z,100760.38
2024-03-12T18:50:14.712Z,100763.22
2024-03-12T18:52:42.692Z,100751.53
2024-03-12T18:55:10.810Z,100770.13
2024-03-12T18:57:38.994Z,100767.03
2024-03-12T19:00:07.337Z,100766.16
2024-03-12T19:02:39.957Z,100769.91
2024-03-12T19:05:08.333Z,100776.13
2024-03-12T19:07:47.091Z,100780.75
2024-03-12T19:10:15.133Z,100778.22
2024-03-12T19:12:49.152Z,100771.81
2024-03-12T19:15:19.661Z,100794.06
2024-03-12T19:17:51.378Z,100792.31
2024-03-12T19:20:21.010Z,100799.28
2024-03-12T19:22:52.252Z,100804.47
2024-03-12T19:25:23.681Z,100799.69
2024-03-12T19:27:53.317Z,100802.94
2024-03-12T19:30:22.071Z,100812.72
2024-03-12T19:32:54.539Z,100798.38
2024-03-12T19:35:28.303Z,100806.16
2024-03-12T19:37:55.620Z,100817.91
2024-03-12T19:40:25.324Z,100819.66
2024-03-12T19:42:53.686Z,100828.91
2024-03-12T19:45:22.996Z,100826.34
2024-03-12T19:47:51.706Z,100828.91
2024-03-12T19:50:26.240Z,100830.59
2024-03-12T19:52:59.162Z,100827.19
2024-03-12T19:55:29.337Z,100823.94
2024-03-12T19:57:57.988Z,100825.09
2024-03-12T20:00:31.058Z,100832.63
2024-03-12T20:03:09.105Z,100833.75
2024-03-12T20:05:35.894Z,100835.75
2024-03-12T20:08:06.462Z,100831.88
2024-03-12T20:10:41.969Z,100838.09
2024-03-12T20:13:18.377Z,100840.50
2024-03-12T20:15:48.004Z,100844.94
2024-03-12T20:18:15.171Z,100853.13
2024-03-12T20:20:42.259Z,100853.44
2024-03-12T20:23:09.051Z,100849.34
2024-03-12T20:25:40.392Z,100846.09
2024-03-12T20:28:09.168Z,100850.63
2024-03-12T20:30:36.255Z,100848.91
2024-03-12T20:33:03.388Z,100851.34
2024-03-12T20:35:30.302Z,100852.03
2024-03-12T20:38:00.413Z,100853.72
2024-03-12T20:40:27.567Z,100849.59
2024-03-12T20:43:03.164Z,100844.66
2024-03-12T20:45:30.899Z,100850.31
2024-03-12T20:47:58.156Z,100853.56
2024-03-12T20:50:25.548Z,100853.44
2024-03-12T20:52:52.350Z,100853.97
2024-03-12T20:55:19.257Z,100859.06
2024-03-12T20:57:46.148Z,100860.31
2024-03-12T21:00:15.134Z,100855.66
2024-03-12T21:02:47.819Z,100850.50
2024-03-12T21:05:17.752Z,100854.47
2024-03-12T21:07:44.815Z,100855.41
2024-03-12T21:10:12.811Z,100849.06
2024-03-12T21:12:39.975Z,100855.84
2024-03-12T21:15:07.787Z,100846.75
2024-03-12T21:17:37.821Z,100854.13
2024-03-12T21:20:05.095Z,100855.13
2024-03-12T21:22:31.849Z,100851.75
2024-03-12T21:24:58.640Z,100853.41
2024-03-12T21:27:28.009Z,100854.13
2024-03-12T21:29:55.304Z,100857.97
2024-03-12T21:32:22.105Z,100846.34
2024-03-12T21:34:48.897Z,100852.44
2024-03-12T21:37:15.753Z,100861.22
2024-03-12T21:39:47.743Z,100857.81
2024-03-12T21:42:14.546Z,100860.91
2024-03-12T21:44:41.291Z,100853.00
2024-03-12T21:47:08.902Z,100844.34
2024-03-12T21:49:35.917Z,100840.66
2024-03-12T21:52:03.324Z,100859.81
2024-03-12T21:54:30.351Z,100849.19
2024-03-12T21:57:00.415Z,100848.63
2024-03-12T21:59:27.300Z,100858.41
2024-03-12T22:01:56.669Z,100851.03
2024-03-12T22:04:24.049Z,100833.22
2024-03-12T22:06:55.713Z,100853.03
2024-03-12T22:09:24.878Z,100852.03
2024-03-12T22:11:51.845Z,100860.41
2024-03-12T22:14:18.834Z,100862.09
2024-03-12T22:16:45.717Z,100856.59
2024-03-12T22:19:12.743Z,100864.22
2024-03-12T22:21:39.702Z,100864.09
2024-03-12T22:24:06.789Z,100867.47
2024-03-12T22:26:34.983Z,100862.78
2024-03-12T22:29:02.077Z,100875.66
2024-03-12T22:31:29.107Z,100871.28
2024-03-12T22:33:56.216Z,100877.50
2024-03-12T22:36:23.362Z,100870.31
2024-03-12T22:38:50.742Z,100877.25
2024-03-12T22:41:17.921Z,100873.56
2024-03-12T22:43:47.427Z,100875.69
2024-03-12T22:46:14.530Z,100877.97
2024-03-12T22:48:41.962Z,100877.41
2024-03-12T22:51:09.302Z,100884.47
2024-03-12T22:53:36.234Z,100888.75
2024-03-12T22:56:03.247Z,100887.47
2024-03-12T22:58:30.562Z,100885.63
2024-03-12T23:00:58.085Z,100891.84
2024-03-12T23:03:25.689Z,100885.94
2024-03-12T23:05:57.658Z,100872.47
2024-03-12T23:08:24.803Z,100892.41
2024-03-12T23:10:51.708Z,100873.44
2024-03-12T23:13:27.403Z,100892.97
2024-03-12T23:15:55.699Z,100880.22
2024-03-12T23:18:22.679Z,100884.31
2024-03-12T23:20:49.478Z,100889.56
2024-03-12T23:23:17.067Z,100890.25
2024-03-12T23:25:47.205Z,100885.69
2024-03-12T23:28:14.136Z,100883.84
2024-03-12T23:30:41.567Z,100878.78
2024-03-12T23:33:08.416Z,100890.25
2024-03-12T23:35:36.340Z,100882.16
2024-03-12T23:38:07.256Z,100882.16
2024-03-12T23:40:34.167Z,100884.28
2024-03-12T23:43:04.316Z,100877.16
2024-03-12T23:45:31.265Z,100883.94
2024-03-12T23:48:00.903Z,100894.91
2024-03-12T23:50:27.684Z,100894.91
2024-03-12T23:52:54.486Z,100904.81
2024-03-12T23:55:21.402Z,100898.56
2024-03-12T23:57:48.280Z,100895.75
